sensor_id;sensor_type;location;lat;lon;timestamp;P1;durP1;ratioP1;P2;durP2;ratioP2
34471;SDS011;20710;49.976;19.836;2023-07-08T00:03:21;9.70;;;5.90;;
34471;SDS011;20710;49.976;19.836;2023-07-08T00:09:22;9.60;;;6.30;;
34471;SDS011;20710;49.976;19.836;2023-07-08T00:15:26;9.20;;;6.00;;
34471;SDS011;20710;49.976;19.836;2023-07-08T00:21:29;7.60;;;5.90;;
34471;SDS011;20710;49.976;19.836;2023-07-08T00:27:30;9.10;;;6.60;;
34471;SDS011;20710;49.976;19.836;2023-07-08T00:33:31;10.60;;;6.70;;
34471;SDS011;20710;49.976;19.836;2023-07-08T00:39:32;9.90;;;6.70;;
34471;SDS011;20710;49.976;19.836;2023-07-08T00:45:41;11.40;;;6.80;;
34471;SDS011;20710;49.976;19.836;2023-07-08T00:52:20;10.80;;;6.30;;
34471;SDS011;20710;49.976;19.836;2023-07-08T00:58:58;11.00;;;6.30;;
34471;SDS011;20710;49.976;19.836;2023-07-08T01:06:02;8.40;;;6.20;;
34471;SDS011;20710;49.976;19.836;2023-07-08T01:12:26;7.40;;;5.70;;
34471;SDS011;20710;49.976;19.836;2023-07-08T01:18:29;13.10;;;7.10;;
34471;SDS011;20710;49.976;19.836;2023-07-08T01:24:31;9.30;;;6.30;;
34471;SDS011;20710;49.976;19.836;2023-07-08T01:30:34;11.00;;;5.60;;
34471;SDS011;20710;49.976;19.836;2023-07-08T01:36:37;14.00;;;6.80;;
34471;SDS011;20710;49.976;19.836;2023-07-08T01:42:57;11.40;;;6.40;;
34471;SDS011;20710;49.976;19.836;2023-07-08T01:48:59;9.40;;;5.80;;
34471;SDS011;20710;49.976;19.836;2023-07-08T01:55:00;10.20;;;6.20;;
34471;SDS011;20710;49.976;19.836;2023-07-08T02:01:17;10.20;;;6.70;;
34471;SDS011;20710;49.976;19.836;2023-07-08T02:07:19;10.40;;;7.10;;
34471;SDS011;20710;49.976;19.836;2023-07-08T02:13:20;7.80;;;6.30;;
34471;SDS011;20710;49.976;19.836;2023-07-08T02:19:22;8.60;;;6.70;;
34471;SDS011;20710;49.976;19.836;2023-07-08T02:25:23;14.10;;;7.90;;
34471;SDS011;20710;49.976;19.836;2023-07-08T02:31:24;10.70;;;6.30;;
34471;SDS011;20710;49.976;19.836;2023-07-08T02:37:26;11.00;;;7.70;;
34471;SDS011;20710;49.976;19.836;2023-07-08T02:43:27;10.70;;;6.90;;
34471;SDS011;20710;49.976;19.836;2023-07-08T02:49:29;9.70;;;6.70;;
34471;SDS011;20710;49.976;19.836;2023-07-08T02:55:30;9.60;;;6.70;;
34471;SDS011;20710;49.976;19.836;2023-07-08T03:01:31;13.50;;;6.30;;
34471;SDS011;20710;49.976;19.836;2023-07-08T03:07:34;8.40;;;6.80;;
34471;SDS011;20710;49.976;19.836;2023-07-08T03:13:35;10.80;;;7.00;;
34471;SDS011;20710;49.976;19.836;2023-07-08T03:19:37;8.50;;;5.70;;
34471;SDS011;20710;49.976;19.836;2023-07-08T03:25:38;7.60;;;6.30;;
34471;SDS011;20710;49.976;19.836;2023-07-08T03:32:49;11.20;;;7.20;;
34471;SDS011;20710;49.976;19.836;2023-07-08T03:39:11;9.50;;;6.60;;
34471;SDS011;20710;49.976;19.836;2023-07-08T03:45:13;8.90;;;6.60;;
34471;SDS011;20710;49.976;19.836;2023-07-08T03:51:17;9.50;;;5.90;;
34471;SDS011;20710;49.976;19.836;2023-07-08T03:57:40;13.20;;;7.50;;
34471;SDS011;20710;49.976;19.836;2023-07-08T04:03:41;11.40;;;7.10;;
34471;SDS011;20710;49.976;19.836;2023-07-08T04:09:43;10.40;;;6.40;;
34471;SDS011;20710;49.976;19.836;2023-07-08T04:15:44;8.40;;;6.00;;
34471;SDS011;20710;49.976;19.836;2023-07-08T04:21:45;8.90;;;5.80;;
34471;SDS011;20710;49.976;19.836;2023-07-08T04:27:46;9.40;;;6.10;;
34471;SDS011;20710;49.976;19.836;2023-07-08T04:33:47;7.60;;;5.70;;
34471;SDS011;20710;49.976;19.836;2023-07-08T04:39:48;11.60;;;6.20;;
34471;SDS011;20710;49.976;19.836;2023-07-08T04:46:48;9.50;;;5.80;;
34471;SDS011;20710;49.976;19.836;2023-07-08T04:52:53;8.60;;;5.50;;
34471;SDS011;20710;49.976;19.836;2023-07-08T04:58:54;7.40;;;5.60;;
34471;SDS011;20710;49.976;19.836;2023-07-08T05:04:55;7.70;;;5.10;;
34471;SDS011;20710;49.976;19.836;2023-07-08T05:10:57;7.00;;;4.50;;
34471;SDS011;20710;49.976;19.836;2023-07-08T05:16:59;6.80;;;4.70;;
34471;SDS011;20710;49.976;19.836;2023-07-08T05:23:06;8.00;;;5.10;;
34471;SDS011;20710;49.976;19.836;2023-07-08T05:29:07;7.90;;;4.70;;
34471;SDS011;20710;49.976;19.836;2023-07-08T05:35:08;8.30;;;5.30;;
34471;SDS011;20710;49.976;19.836;2023-07-08T05:41:09;7.90;;;5.40;;
34471;SDS011;20710;49.976;19.836;2023-07-08T05:47:53;7.90;;;5.20;;
34471;SDS011;20710;49.976;19.836;2023-07-08T05:53:54;7.60;;;4.60;;
34471;SDS011;20710;49.976;19.836;2023-07-08T05:59:55;6.60;;;4.40;;
34471;SDS011;20710;49.976;19.836;2023-07-08T06:05:56;6.60;;;3.60;;
34471;SDS011;20710;49.976;19.836;2023-07-08T06:11:57;6.00;;;4.00;;
34471;SDS011;20710;49.976;19.836;2023-07-08T06:17:58;5.20;;;3.90;;
34471;SDS011;20710;49.976;19.836;2023-07-08T06:24:03;5.50;;;3.70;;
34471;SDS011;20710;49.976;19.836;2023-07-08T06:30:04;5.20;;;3.40;;
34471;SDS011;20710;49.976;19.836;2023-07-08T06:36:06;5.00;;;3.50;;
34471;SDS011;20710;49.976;19.836;2023-07-08T06:42:08;9.00;;;4.10;;
34471;SDS011;20710;49.976;19.836;2023-07-08T06:48:14;7.00;;;5.00;;
34471;SDS011;20710;49.976;19.836;2023-07-08T06:54:38;6.00;;;4.00;;
34471;SDS011;20710;49.976;19.836;2023-07-08T07:00:41;8.60;;;4.70;;
34471;SDS011;20710;49.976;19.836;2023-07-08T07:07:02;7.90;;;3.40;;
34471;SDS011;20710;49.976;19.836;2023-07-08T07:13:07;6.20;;;3.80;;
34471;SDS011;20710;49.976;19.836;2023-07-08T07:19:08;7.80;;;4.20;;
34471;SDS011;20710;49.976;19.836;2023-07-08T07:25:13;5.30;;;3.50;;
34471;SDS011;20710;49.976;19.836;2023-07-08T07:31:14;7.60;;;3.50;;
34471;SDS011;20710;49.976;19.836;2023-07-08T07:37:15;5.70;;;3.40;;
34471;SDS011;20710;49.976;19.836;2023-07-08T07:43:18;4.70;;;3.30;;
34471;SDS011;20710;49.976;19.836;2023-07-08T07:49:19;4.50;;;3.10;;
34471;SDS011;20710;49.976;19.836;2023-07-08T07:55:22;5.50;;;2.60;;
34471;SDS011;20710;49.976;19.836;2023-07-08T08:01:50;5.70;;;2.70;;
34471;SDS011;20710;49.976;19.836;2023-07-08T08:07:51;4.20;;;2.80;;
34471;SDS011;20710;49.976;19.836;2023-07-08T08:13:52;6.40;;;2.80;;
34471;SDS011;20710;49.976;19.836;2023-07-08T08:19:53;5.60;;;2.60;;
34471;SDS011;20710;49.976;19.836;2023-07-08T08:25:54;3.10;;;1.80;;
34471;SDS011;20710;49.976;19.836;2023-07-08T08:31:56;5.80;;;2.70;;
34471;SDS011;20710;49.976;19.836;2023-07-08T08:37:57;2.60;;;1.60;;
34471;SDS011;20710;49.976;19.836;2023-07-08T08:43:58;3.50;;;1.70;;
34471;SDS011;20710;49.976;19.836;2023-07-08T08:56:48;4.10;;;1.80;;
34471;SDS011;20710;49.976;19.836;2023-07-08T09:03:14;5.70;;;1.90;;
34471;SDS011;20710;49.976;19.836;2023-07-08T09:09:29;1.90;;;1.70;;
34471;SDS011;20710;49.976;19.836;2023-07-08T09:15:33;3.00;;;2.00;;
34471;SDS011;20710;49.976;19.836;2023-07-08T09:22:21;2.90;;;1.50;;
34471;SDS011;20710;49.976;19.836;2023-07-08T09:35:08;1.90;;;1.70;;
34471;SDS011;20710;49.976;19.836;2023-07-08T09:41:10;1.90;;;1.40;;
34471;SDS011;20710;49.976;19.836;2023-07-08T09:47:20;2.20;;;1.60;;
34471;SDS011;20710;49.976;19.836;2023-07-08T09:53:23;2.90;;;1.80;;
34471;SDS011;20710;49.976;19.836;2023-07-08T09:59:27;1.70;;;1.30;;
34471;SDS011;20710;49.976;19.836;2023-07-08T10:06:35;1.80;;;1.50;;
34471;SDS011;20710;49.976;19.836;2023-07-08T10:21:23;2.80;;;1.40;;
34471;SDS011;20710;49.976;19.836;2023-07-08T10:40:29;2.90;;;1.40;;
34471;SDS011;20710;49.976;19.836;2023-07-08T10:46:57;1.50;;;1.30;;
34471;SDS011;20710;49.976;19.836;2023-07-08T10:53:46;2.60;;;1.50;;
34471;SDS011;20710;49.976;19.836;2023-07-08T11:06:44;1.90;;;1.50;;
34471;SDS011;20710;49.976;19.836;2023-07-08T11:12:59;5.60;;;2.40;;
34471;SDS011;20710;49.976;19.836;2023-07-08T11:19:24;2.30;;;1.40;;
34471;SDS011;20710;49.976;19.836;2023-07-08T11:25:30;2.50;;;1.50;;
34471;SDS011;20710;49.976;19.836;2023-07-08T11:31:32;1.90;;;1.50;;
34471;SDS011;20710;49.976;19.836;2023-07-08T11:37:35;2.90;;;1.80;;
34471;SDS011;20710;49.976;19.836;2023-07-08T11:43:44;2.00;;;1.60;;
34471;SDS011;20710;49.976;19.836;2023-07-08T11:55:56;2.20;;;1.30;;
34471;SDS011;20710;49.976;19.836;2023-07-08T12:02:31;4.10;;;1.50;;
34471;SDS011;20710;49.976;19.836;2023-07-08T12:15:17;2.70;;;1.90;;
34471;SDS011;20710;49.976;19.836;2023-07-08T12:21:23;2.70;;;1.20;;
34471;SDS011;20710;49.976;19.836;2023-07-08T12:27:24;1.90;;;1.40;;
34471;SDS011;20710;49.976;19.836;2023-07-08T12:33:32;6.10;;;1.90;;
34471;SDS011;20710;49.976;19.836;2023-07-08T12:39:55;3.40;;;1.40;;
34471;SDS011;20710;49.976;19.836;2023-07-08T12:45:57;2.10;;;1.40;;
34471;SDS011;20710;49.976;19.836;2023-07-08T12:51:58;1.80;;;1.30;;
34471;SDS011;20710;49.976;19.836;2023-07-08T12:58:00;1.40;;;1.30;;
34471;SDS011;20710;49.976;19.836;2023-07-08T13:04:02;3.50;;;1.50;;
34471;SDS011;20710;49.976;19.836;2023-07-08T13:10:05;2.10;;;1.40;;
34471;SDS011;20710;49.976;19.836;2023-07-08T13:16:08;2.80;;;1.40;;
34471;SDS011;20710;49.976;19.836;2023-07-08T13:22:15;1.70;;;1.40;;
34471;SDS011;20710;49.976;19.836;2023-07-08T13:28:38;3.00;;;1.00;;
34471;SDS011;20710;49.976;19.836;2023-07-08T13:34:48;2.00;;;1.40;;
34471;SDS011;20710;49.976;19.836;2023-07-08T13:41:00;1.80;;;1.40;;
34471;SDS011;20710;49.976;19.836;2023-07-08T13:47:02;1.30;;;1.10;;
34471;SDS011;20710;49.976;19.836;2023-07-08T13:53:27;3.20;;;1.00;;
34471;SDS011;20710;49.976;19.836;2023-07-08T14:06:25;1.70;;;0.90;;
34471;SDS011;20710;49.976;19.836;2023-07-08T14:12:27;2.00;;;1.00;;
34471;SDS011;20710;49.976;19.836;2023-07-08T14:18:28;1.40;;;1.10;;
34471;SDS011;20710;49.976;19.836;2023-07-08T14:24:29;1.00;;;0.80;;
34471;SDS011;20710;49.976;19.836;2023-07-08T14:30:30;1.10;;;0.90;;
34471;SDS011;20710;49.976;19.836;2023-07-08T14:36:31;2.50;;;0.90;;
34471;SDS011;20710;49.976;19.836;2023-07-08T14:42:37;1.50;;;1.10;;
34471;SDS011;20710;49.976;19.836;2023-07-08T15:01:11;1.50;;;0.80;;
34471;SDS011;20710;49.976;19.836;2023-07-08T15:07:18;2.50;;;0.80;;
34471;SDS011;20710;49.976;19.836;2023-07-08T15:13:21;1.40;;;0.80;;
34471;SDS011;20710;49.976;19.836;2023-07-08T15:19:37;1.20;;;1.00;;
34471;SDS011;20710;49.976;19.836;2023-07-08T15:25:39;1.10;;;0.90;;
34471;SDS011;20710;49.976;19.836;2023-07-08T15:31:42;2.40;;;1.10;;
34471;SDS011;20710;49.976;19.836;2023-07-08T15:38:07;2.60;;;1.60;;
34471;SDS011;20710;49.976;19.836;2023-07-08T15:44:08;2.30;;;1.30;;
34471;SDS011;20710;49.976;19.836;2023-07-08T15:50:11;1.50;;;1.30;;
34471;SDS011;20710;49.976;19.836;2023-07-08T15:56:14;1.90;;;1.30;;
34471;SDS011;20710;49.976;19.836;2023-07-08T16:02:24;1.60;;;1.40;;
34471;SDS011;20710;49.976;19.836;2023-07-08T16:08:46;2.20;;;1.60;;
34471;SDS011;20710;49.976;19.836;2023-07-08T16:14:48;1.80;;;1.40;;
34471;SDS011;20710;49.976;19.836;2023-07-08T16:20:49;6.10;;;1.40;;
34471;SDS011;20710;49.976;19.836;2023-07-08T16:26:52;1.30;;;1.00;;
34471;SDS011;20710;49.976;19.836;2023-07-08T16:32:55;1.20;;;1.00;;
34471;SDS011;20710;49.976;19.836;2023-07-08T16:39:07;1.80;;;1.10;;
34471;SDS011;20710;49.976;19.836;2023-07-08T16:45:10;1.50;;;1.30;;
34471;SDS011;20710;49.976;19.836;2023-07-08T16:51:19;2.40;;;1.50;;
34471;SDS011;20710;49.976;19.836;2023-07-08T16:57:27;3.00;;;1.70;;
34471;SDS011;20710;49.976;19.836;2023-07-08T17:03:28;4.80;;;3.60;;
34471;SDS011;20710;49.976;19.836;2023-07-08T17:09:29;3.70;;;2.40;;
34471;SDS011;20710;49.976;19.836;2023-07-08T17:15:30;4.40;;;3.10;;
34471;SDS011;20710;49.976;19.836;2023-07-08T17:21:33;2.50;;;1.80;;
34471;SDS011;20710;49.976;19.836;2023-07-08T17:27:33;1.90;;;1.40;;
34471;SDS011;20710;49.976;19.836;2023-07-08T17:33:35;2.80;;;1.60;;
34471;SDS011;20710;49.976;19.836;2023-07-08T17:39:36;3.40;;;2.10;;
34471;SDS011;20710;49.976;19.836;2023-07-08T17:45:42;2.70;;;1.60;;
34471;SDS011;20710;49.976;19.836;2023-07-08T17:51:46;2.70;;;1.40;;
34471;SDS011;20710;49.976;19.836;2023-07-08T17:57:47;5.40;;;4.00;;
34471;SDS011;20710;49.976;19.836;2023-07-08T18:03:49;4.60;;;3.80;;
34471;SDS011;20710;49.976;19.836;2023-07-08T18:09:50;7.00;;;2.70;;
34471;SDS011;20710;49.976;19.836;2023-07-08T18:15:52;8.10;;;3.40;;
34471;SDS011;20710;49.976;19.836;2023-07-08T18:21:54;4.30;;;2.60;;
34471;SDS011;20710;49.976;19.836;2023-07-08T18:27:56;8.30;;;4.70;;
34471;SDS011;20710;49.976;19.836;2023-07-08T18:33:57;6.90;;;5.20;;
34471;SDS011;20710;49.976;19.836;2023-07-08T18:40:01;10.60;;;5.10;;
34471;SDS011;20710;49.976;19.836;2023-07-08T18:46:03;7.70;;;4.40;;
34471;SDS011;20710;49.976;19.836;2023-07-08T18:52:04;6.50;;;4.30;;
34471;SDS011;20710;49.976;19.836;2023-07-08T18:58:10;9.80;;;6.70;;
34471;SDS011;20710;49.976;19.836;2023-07-08T19:04:18;12.90;;;7.40;;
34471;SDS011;20710;49.976;19.836;2023-07-08T19:10:27;9.80;;;6.40;;
34471;SDS011;20710;49.976;19.836;2023-07-08T19:16:57;10.50;;;6.00;;
34471;SDS011;20710;49.976;19.836;2023-07-08T19:22:57;8.80;;;5.60;;
34471;SDS011;20710;49.976;19.836;2023-07-08T19:28:59;8.20;;;5.70;;
34471;SDS011;20710;49.976;19.836;2023-07-08T19:35:00;8.80;;;5.80;;
34471;SDS011;20710;49.976;19.836;2023-07-08T19:41:01;8.70;;;5.20;;
34471;SDS011;20710;49.976;19.836;2023-07-08T19:47:02;8.20;;;6.00;;
34471;SDS011;20710;49.976;19.836;2023-07-08T19:53:04;11.40;;;6.20;;
34471;SDS011;20710;49.976;19.836;2023-07-08T19:59:07;15.20;;;6.60;;
34471;SDS011;20710;49.976;19.836;2023-07-08T20:05:15;16.10;;;6.50;;
34471;SDS011;20710;49.976;19.836;2023-07-08T20:11:17;11.30;;;6.70;;
34471;SDS011;20710;49.976;19.836;2023-07-08T20:23:44;11.30;;;6.60;;
34471;SDS011;20710;49.976;19.836;2023-07-08T20:30:02;11.50;;;6.50;;
34471;SDS011;20710;49.976;19.836;2023-07-08T20:36:27;17.90;;;6.80;;
34471;SDS011;20710;49.976;19.836;2023-07-08T20:42:28;12.40;;;7.60;;
34471;SDS011;20710;49.976;19.836;2023-07-08T20:48:30;12.30;;;7.30;;
34471;SDS011;20710;49.976;19.836;2023-07-08T20:54:57;10.40;;;6.70;;
34471;SDS011;20710;49.976;19.836;2023-07-08T21:00:58;10.80;;;6.60;;
34471;SDS011;20710;49.976;19.836;2023-07-08T21:06:59;14.70;;;7.60;;
34471;SDS011;20710;49.976;19.836;2023-07-08T21:13:00;12.00;;;8.20;;
34471;SDS011;20710;49.976;19.836;2023-07-08T21:19:00;12.90;;;9.50;;
34471;SDS011;20710;49.976;19.836;2023-07-08T21:25:02;13.90;;;9.10;;
34471;SDS011;20710;49.976;19.836;2023-07-08T21:31:03;13.90;;;8.00;;
34471;SDS011;20710;49.976;19.836;2023-07-08T21:37:04;14.30;;;9.10;;
34471;SDS011;20710;49.976;19.836;2023-07-08T21:43:08;12.60;;;8.80;;
34471;SDS011;20710;49.976;19.836;2023-07-08T21:49:31;13.30;;;8.50;;
34471;SDS011;20710;49.976;19.836;2023-07-08T21:56:07;14.90;;;8.40;;
34471;SDS011;20710;49.976;19.836;2023-07-08T22:02:11;14.00;;;8.60;;
34471;SDS011;20710;49.976;19.836;2023-07-08T22:08:13;14.90;;;8.60;;
34471;SDS011;20710;49.976;19.836;2023-07-08T22:14:30;14.20;;;7.90;;
34471;SDS011;20710;49.976;19.836;2023-07-08T22:20:31;13.40;;;8.10;;
34471;SDS011;20710;49.976;19.836;2023-07-08T22:26:45;11.70;;;7.60;;
34471;SDS011;20710;49.976;19.836;2023-07-08T22:32:48;11.40;;;7.80;;
34471;SDS011;20710;49.976;19.836;2023-07-08T22:38:57;10.80;;;7.90;;
34471;SDS011;20710;49.976;19.836;2023-07-08T22:45:00;11.70;;;7.70;;
34471;SDS011;20710;49.976;19.836;2023-07-08T22:51:02;13.20;;;8.10;;
34471;SDS011;20710;49.976;19.836;2023-07-08T22:57:03;12.10;;;8.00;;
34471;SDS011;20710;49.976;19.836;2023-07-08T23:03:05;13.50;;;8.50;;
34471;SDS011;20710;49.976;19.836;2023-07-08T23:09:08;14.10;;;7.60;;
34471;SDS011;20710;49.976;19.836;2023-07-08T23:15:11;12.60;;;8.50;;
34471;SDS011;20710;49.976;19.836;2023-07-08T23:21:13;10.60;;;7.50;;
34471;SDS011;20710;49.976;19.836;2023-07-08T23:27:43;13.30;;;8.50;;
34471;SDS011;20710;49.976;19.836;2023-07-08T23:33:45;14.80;;;8.40;;
34471;SDS011;20710;49.976;19.836;2023-07-08T23:39:47;13.30;;;7.70;;
34471;SDS011;20710;49.976;19.836;2023-07-08T23:45:48;14.70;;;7.50;;
34471;SDS011;20710;49.976;19.836;2023-07-08T23:51:51;13.30;;;7.50;;
34471;SDS011;20710;49.976;19.836;2023-07-08T23:57:52;11.40;;;6.70;;
